Time;durP1;ratioP1;P1;durP2;ratioP2;P2;SDS_P1;SDS_P2;PMS_P1;PMS_P2;Temp;Humidity;BMP_temperature;BMP_pressure;BME280_temperature;BME280_humidity;BME280_pressure;Samples;Min_cycle;Max_cycle;Signal;HPM_P1;HPM_P2
2023/06/04 00:02:10;;;;;;;12.30;11.50;;;18.50;99.90;;;;;;4907620;29;20481;-82
2023/06/04 00:04:38;;;;;;;11.47;10.87;;;18.50;99.90;;;;;;4906018;29;20487;-81
2023/06/04 00:07:08;;;;;;;11.60;10.90;;;18.50;99.90;;;;;;4907982;29;20462;-81
2023/06/04 00:09:36;;;;;;;11.70;10.90;;;18.40;99.90;;;;;;4907242;29;20458;-81
2023/06/04 00:12:05;;;;;;;12.17;11.40;;;18.30;99.90;;;;;;4907409;29;20505;-82
2023/06/04 00:14:33;;;;;;;12.80;11.70;;;18.30;99.90;;;;;;4907608;29;20477;-81
2023/06/04 00:17:02;;;;;;;12.17;11.47;;;18.20;99.90;;;;;;4907627;29;21081;-81
2023/06/04 00:19:30;;;;;;;12.20;11.60;;;18.20;99.90;;;;;;4907215;29;20964;-82
2023/06/04 00:21:58;;;;;;;12.07;11.30;;;18.30;99.90;;;;;;4906749;29;20457;-82
2023/06/04 00:24:27;;;;;;;12.50;11.70;;;18.20;99.90;;;;;;4922392;29;21181;-81
2023/06/04 00:26:56;;;;;;;12.57;11.67;;;18.20;99.90;;;;;;4907027;29;20554;-82
2023/06/04 00:29:24;;;;;;;12.17;11.43;;;18.20;99.90;;;;;;4905853;29;20457;-81
2023/06/04 00:31:52;;;;;;;12.60;11.87;;;18.10;99.90;;;;;;4906113;29;20465;-81
2023/06/04 00:34:21;;;;;;;12.40;11.60;;;18.10;99.90;;;;;;4906744;29;21179;-81
2023/06/04 00:36:49;;;;;;;13.27;12.27;;;18.00;99.90;;;;;;4906848;29;21036;-81
2023/06/04 00:39:17;;;;;;;12.20;11.60;;;17.90;99.90;;;;;;4906616;29;20493;-81
2023/06/04 00:41:47;;;;;;;12.23;11.53;;;17.90;99.90;;;;;;4906758;29;20545;-82
2023/06/04 00:44:16;;;;;;;12.57;11.83;;;17.80;99.90;;;;;;4908177;29;20488;-81
2023/06/04 00:46:47;;;;;;;12.67;11.87;;;17.80;99.90;;;;;;4906056;29;20832;-81
2023/06/04 00:49:15;;;;;;;12.80;12.10;;;17.80;99.90;;;;;;4906024;29;21324;-81
2023/06/04 00:51:44;;;;;;;11.57;10.97;;;17.80;99.90;;;;;;4910475;29;20651;-81
2023/06/04 00:54:13;;;;;;;12.80;12.10;;;17.80;99.90;;;;;;4924932;29;20477;-81
2023/06/04 00:56:42;;;;;;;13.00;12.20;;;17.80;99.90;;;;;;4909611;29;20692;-82
2023/06/04 00:59:12;;;;;;;11.57;11.07;;;17.80;99.90;;;;;;4910492;29;20568;-82
2023/06/04 01:01:48;;;;;;;12.70;11.63;;;17.80;99.90;;;;;;4907728;29;20549;-80
2023/06/04 01:04:22;;;;;;;11.73;11.00;;;17.80;99.90;;;;;;4909552;29;20497;-82
2023/06/04 01:06:52;;;;;;;11.77;11.17;;;17.80;99.90;;;;;;4911181;29;20465;-81
2023/06/04 01:09:21;;;;;;;12.57;11.87;;;17.80;99.90;;;;;;4909737;29;20462;-81
2023/06/04 01:11:49;;;;;;;12.23;11.37;;;17.80;99.90;;;;;;4909962;29;21494;-81
2023/06/04 01:14:19;;;;;;;12.67;11.90;;;17.80;99.90;;;;;;4909286;29;20473;-81
2023/06/04 01:17:02;;;;;;;11.90;11.30;;;17.80;99.90;;;;;;4910715;29;21091;-80
2023/06/04 01:20:25;;;;;;;14.23;13.20;;;17.70;99.90;;;;;;4910926;29;20465;-81
2023/06/04 01:23:09;;;;;;;11.70;11.10;;;17.70;99.90;;;;;;4862306;29;20573;-81
2023/06/04 01:25:39;;;;;;;12.10;11.30;;;17.70;99.90;;;;;;4925416;29;20835;-81
2023/06/04 01:28:10;;;;;;;11.37;10.83;;;17.70;99.90;;;;;;4909019;29;20457;-81
2023/06/04 01:30:45;;;;;;;12.00;11.20;;;17.70;99.90;;;;;;4909096;29;20469;-82
2023/06/04 01:33:15;;;;;;;11.43;10.83;;;17.60;99.90;;;;;;4910517;29;20842;-81
2023/06/04 01:35:43;;;;;;;11.90;11.10;;;17.60;99.90;;;;;;4924770;29;21019;-81
2023/06/04 01:38:11;;;;;;;12.00;11.20;;;17.50;99.90;;;;;;4902747;29;20472;-81
2023/06/04 01:40:42;;;;;;;12.00;11.20;;;17.50;99.90;;;;;;4909512;29;20468;-81
2023/06/04 01:43:10;;;;;;;12.47;11.70;;;17.50;99.90;;;;;;4909848;29;20488;-81
2023/06/04 01:45:40;;;;;;;11.80;11.00;;;17.40;99.90;;;;;;4908838;29;21030;-82
2023/06/04 01:48:08;;;;;;;12.67;11.87;;;17.30;99.90;;;;;;4906907;29;20915;-81
2023/06/04 01:50:36;;;;;;;12.53;11.73;;;17.30;99.90;;;;;;4910013;29;20465;-80
2023/06/04 01:53:04;;;;;;;12.70;12.00;;;17.30;99.90;;;;;;4910155;29;20467;-82
2023/06/04 01:55:34;;;;;;;12.13;11.43;;;17.20;99.90;;;;;;4909309;29;20975;-81
2023/06/04 01:58:02;;;;;;;12.43;11.47;;;17.20;99.90;;;;;;4910663;29;20465;-82
2023/06/04 02:00:30;;;;;;;11.80;11.20;;;17.20;99.90;;;;;;4909826;29;20469;-82
2023/06/04 02:03:00;;;;;;;13.23;12.33;;;17.20;99.90;;;;;;4908502;29;20499;-81
2023/06/04 02:05:29;;;;;;;11.60;10.90;;;17.20;99.90;;;;;;4909880;29;20484;-81
2023/06/04 02:07:57;;;;;;;11.50;10.90;;;17.20;99.90;;;;;;4908749;29;20467;-83
2023/06/04 02:10:25;;;;;;;11.60;10.97;;;17.30;99.90;;;;;;4908142;29;20680;-80
2023/06/04 02:12:55;;;;;;;12.53;11.63;;;17.20;99.90;;;;;;4923447;29;20471;-81
2023/06/04 02:15:24;;;;;;;11.80;11.10;;;17.30;99.90;;;;;;4924660;29;20843;-81
2023/06/04 02:17:58;;;;;;;12.87;11.97;;;17.30;99.90;;;;;;4909737;29;20461;-82
2023/06/04 02:20:28;;;;;;;11.27;10.37;;;17.20;99.90;;;;;;4901871;29;20492;-82
2023/06/04 02:22:57;;;;;;;11.60;10.97;;;17.10;99.90;;;;;;4909619;29;20463;-82
2023/06/04 02:25:25;;;;;;;11.60;10.73;;;17.20;99.90;;;;;;4924588;29;20481;-81
2023/06/04 02:27:53;;;;;;;11.60;10.67;;;17.20;99.90;;;;;;4908501;29;20557;-82
2023/06/04 02:30:21;;;;;;;12.03;11.03;;;17.20;99.90;;;;;;4909301;29;20463;-81
2023/06/04 02:32:50;;;;;;;12.17;11.27;;;17.10;99.90;;;;;;4908182;29;20476;-81
2023/06/04 02:35:20;;;;;;;10.67;10.17;;;17.00;99.90;;;;;;4909502;29;20477;-81
2023/06/04 02:37:50;;;;;;;10.87;10.37;;;17.00;99.90;;;;;;4907013;29;20817;-81
2023/06/04 02:40:19;;;;;;;11.27;10.63;;;17.00;99.90;;;;;;4909079;29;20545;-82
2023/06/04 02:42:47;;;;;;;11.77;10.77;;;16.90;99.90;;;;;;4909057;29;20967;-82
2023/06/04 02:45:15;;;;;;;11.00;10.40;;;16.80;99.90;;;;;;4908818;29;20461;-82
2023/06/04 02:47:43;;;;;;;12.30;11.60;;;16.80;99.90;;;;;;4908390;29;20456;-82
2023/06/04 02:50:12;;;;;;;11.90;11.30;;;16.70;99.90;;;;;;4907830;29;20819;-81
2023/06/04 02:52:40;;;;;;;11.83;11.10;;;16.70;99.90;;;;;;4907642;29;21252;-81
2023/06/04 02:55:12;;;;;;;11.13;10.53;;;16.70;99.90;;;;;;4923353;29;20487;-81
2023/06/04 02:57:43;;;;;;;11.03;10.33;;;16.70;99.90;;;;;;4907824;29;20550;-81
2023/06/04 03:00:12;;;;;;;10.13;9.63;;;16.70;99.90;;;;;;4908515;29;20517;-81
2023/06/04 03:02:43;;;;;;;10.60;10.10;;;16.70;99.90;;;;;;4907991;29;20453;-82
2023/06/04 03:05:13;;;;;;;11.10;10.43;;;16.60;99.90;;;;;;4909652;29;20521;-81
2023/06/04 03:07:44;;;;;;;13.73;11.10;;;16.70;99.90;;;;;;4907659;29;21013;-82
2023/06/04 03:10:15;;;;;;;11.13;10.50;;;16.70;99.90;;;;;;4907708;29;20870;-82
2023/06/04 03:12:43;;;;;;;10.30;9.70;;;16.70;99.90;;;;;;4908919;29;20462;-82
2023/06/04 03:15:12;;;;;;;10.50;9.90;;;16.60;99.90;;;;;;4923739;29;20539;-83
2023/06/04 03:17:41;;;;;;;11.10;10.40;;;16.60;99.90;;;;;;4907715;29;20483;-81
2023/06/04 03:20:10;;;;;;;10.23;9.53;;;16.70;99.90;;;;;;4907803;29;20465;-81
2023/06/04 03:22:38;;;;;;;10.73;10.17;;;16.70;99.90;;;;;;4908796;29;20520;-82
2023/06/04 03:25:07;;;;;;;9.90;9.40;;;16.70;99.90;;;;;;4907768;29;20870;-81
2023/06/04 03:27:37;;;;;;;11.07;10.37;;;16.80;99.90;;;;;;4906783;29;20490;-81
2023/06/04 03:30:06;;;;;;;10.57;10.03;;;16.80;99.90;;;;;;4908618;29;20464;-81
2023/06/04 03:32:34;;;;;;;11.27;10.57;;;16.70;99.90;;;;;;4907651;29;20489;-81
2023/06/04 03:35:03;;;;;;;12.50;11.60;;;16.70;99.90;;;;;;4906888;29;20492;-81
2023/06/04 03:37:32;;;;;;;11.40;10.70;;;16.50;99.90;;;;;;4906774;29;20451;-81
2023/06/04 03:40:02;;;;;;;11.83;11.03;;;16.50;99.90;;;;;;4905841;29;20460;-81
2023/06/04 03:42:30;;;;;;;10.80;10.20;;;16.50;99.90;;;;;;4907548;29;20453;-81
2023/06/04 03:44:59;;;;;;;11.13;10.60;;;16.40;99.90;;;;;;4906694;29;20546;-81
2023/06/04 03:47:27;;;;;;;11.97;11.00;;;16.40;99.90;;;;;;4908376;29;20491;-80
2023/06/04 03:49:56;;;;;;;11.33;10.63;;;16.30;99.90;;;;;;4906667;29;21152;-79
2023/06/04 03:52:24;;;;;;;11.70;10.90;;;16.30;99.90;;;;;;4908869;29;21142;-81
2023/06/04 03:54:52;;;;;;;11.77;11.10;;;16.30;99.90;;;;;;4909261;29;20478;-82
2023/06/04 03:57:20;;;;;;;11.47;10.67;;;16.30;99.90;;;;;;4906957;29;20467;-81
2023/06/04 03:59:48;;;;;;;11.03;10.33;;;16.40;99.90;;;;;;4908080;29;20890;-82
2023/06/04 04:02:17;;;;;;;11.30;10.70;;;16.40;99.90;;;;;;4907956;29;20471;-82
2023/06/04 04:04:46;;;;;;;11.97;11.20;;;16.40;99.90;;;;;;4905564;29;20487;-82
2023/06/04 04:07:15;;;;;;;12.70;11.70;;;16.30;99.90;;;;;;4907963;29;20501;-81
2023/06/04 04:09:43;;;;;;;11.93;11.33;;;16.20;99.90;;;;;;4907217;29;20482;-81
2023/06/04 04:12:11;;;;;;;13.37;12.57;;;16.20;99.90;;;;;;4909130;29;20472;-81
2023/06/04 04:14:39;;;;;;;12.50;11.80;;;16.20;99.90;;;;;;4909375;29;20487;-81
2023/06/04 04:17:07;;;;;;;12.83;11.93;;;16.30;99.90;;;;;;4907528;29;20479;-81
2023/06/04 04:19:38;;;;;;;12.37;11.67;;;16.20;99.90;;;;;;4905090;29;20489;-81
2023/06/04 04:22:06;;;;;;;12.20;11.50;;;16.30;99.90;;;;;;4906693;29;20472;-81
2023/06/04 04:24:36;;;;;;;12.87;12.20;;;16.30;99.90;;;;;;4908490;29;20607;-80
2023/06/04 04:27:05;;;;;;;13.27;12.40;;;16.30;99.90;;;;;;4907131;29;20487;-81
2023/06/04 04:29:34;;;;;;;12.37;11.70;;;16.40;99.90;;;;;;4908212;29;20460;-81
2023/06/04 04:32:10;;;;;;;12.60;11.90;;;16.30;99.90;;;;;;4906183;29;20478;-80
2023/06/04 04:34:39;;;;;;;13.50;12.50;;;16.30;99.90;;;;;;4907621;29;21020;-80
2023/06/04 04:37:09;;;;;;;12.60;11.80;;;16.20;99.90;;;;;;4921816;29;21446;-81
2023/06/04 04:39:37;;;;;;;13.50;12.67;;;16.20;99.90;;;;;;4907501;29;20487;-82
2023/06/04 04:42:06;;;;;;;12.27;11.67;;;16.30;99.90;;;;;;4908410;29;20467;-81
2023/06/04 04:44:34;;;;;;;13.20;12.30;;;16.20;99.90;;;;;;4907415;29;20497;-81
2023/06/04 04:47:02;;;;;;;13.33;12.20;;;16.20;99.90;;;;;;4907731;29;20483;-80
2023/06/04 04:49:30;;;;;;;12.60;11.90;;;16.20;99.90;;;;;;4907288;29;20468;-81
2023/06/04 04:52:00;;;;;;;12.70;12.00;;;16.20;99.90;;;;;;4906987;29;20584;-81
2023/06/04 04:54:28;;;;;;;12.47;11.70;;;16.30;99.90;;;;;;4906752;29;20486;-81
2023/06/04 04:56:56;;;;;;;12.73;12.07;;;16.20;99.90;;;;;;4906259;29;20566;-80
2023/06/04 04:59:40;;;;;;;12.17;11.33;;;16.20;99.90;;;;;;4906099;29;20464;-80
2023/06/04 05:02:08;;;;;;;12.57;11.80;;;16.30;99.90;;;;;;4906430;29;20467;-82
2023/06/04 05:04:37;;;;;;;12.27;11.50;;;16.40;99.90;;;;;;4906650;29;21208;-81
2023/06/04 05:07:06;;;;;;;11.40;10.90;;;16.30;99.90;;;;;;4907818;29;20971;-82
2023/06/04 05:09:34;;;;;;;12.40;11.70;;;16.40;99.90;;;;;;4907284;29;20468;-80
2023/06/04 05:12:02;;;;;;;11.43;10.93;;;16.40;99.90;;;;;;4908022;29;20482;-80
2023/06/04 05:14:31;;;;;;;11.27;10.50;;;16.50;99.90;;;;;;4907924;29;20495;-81
2023/06/04 05:16:59;;;;;;;11.27;10.67;;;16.50;99.90;;;;;;4907711;29;20518;-81
2023/06/04 05:19:27;;;;;;;10.37;9.77;;;16.60;99.90;;;;;;4907227;29;20483;-82
2023/06/04 05:21:55;;;;;;;10.80;10.30;;;16.60;99.90;;;;;;4908175;29;21221;-80
2023/06/04 05:24:25;;;;;;;9.60;9.20;;;16.60;99.90;;;;;;4906076;29;20732;-81
2023/06/04 05:26:53;;;;;;;9.67;9.27;;;16.60;99.90;;;;;;4907466;29;20572;-80
2023/06/04 05:29:21;;;;;;;10.13;9.27;;;16.70;99.90;;;;;;4907712;29;20508;-81
2023/06/04 05:31:49;;;;;;;9.50;9.00;;;16.70;99.90;;;;;;4905980;29;20469;-80
2023/06/04 05:34:18;;;;;;;10.03;9.43;;;16.80;99.90;;;;;;4907574;29;20489;-81
2023/06/04 05:36:46;;;;;;;9.57;8.97;;;16.80;99.90;;;;;;4908522;29;20457;-81
2023/06/04 05:39:14;;;;;;;9.57;9.10;;;16.90;99.90;;;;;;4910260;29;20460;-81
2023/06/04 05:41:45;;;;;;;10.03;9.53;;;16.90;99.90;;;;;;4910019;29;20507;-81
2023/06/04 05:44:13;;;;;;;9.50;9.10;;;16.90;99.90;;;;;;4908516;29;20487;-80
2023/06/04 05:46:41;;;;;;;9.67;9.17;;;16.90;99.90;;;;;;4910298;29;20458;-80
2023/06/04 05:49:09;;;;;;;9.27;8.90;;;17.00;99.90;;;;;;4910094;29;20506;-81
2023/06/04 05:51:37;;;;;;;9.70;9.10;;;17.00;99.90;;;;;;4908529;29;20479;-81
2023/06/04 05:54:05;;;;;;;9.43;8.97;;;17.00;99.90;;;;;;4908775;29;20477;-80
2023/06/04 05:56:33;;;;;;;9.20;8.80;;;17.00;99.90;;;;;;4908746;29;20471;-81
2023/06/04 05:59:03;;;;;;;10.33;9.53;;;17.10;99.90;;;;;;4909873;29;20463;-81
2023/06/04 06:01:31;;;;;;;10.23;9.73;;;17.20;99.90;;;;;;4909087;29;20467;-81
2023/06/04 06:04:00;;;;;;;9.50;9.10;;;17.20;99.90;;;;;;4910202;29;20480;-81
2023/06/04 06:06:28;;;;;;;9.50;9.00;;;17.30;99.90;;;;;;4910110;29;20468;-81
2023/06/04 06:08:57;;;;;;;9.80;9.30;;;17.30;99.90;;;;;;4924184;29;20493;-81
2023/06/04 06:11:26;;;;;;;9.13;8.70;;;17.40;99.90;;;;;;4907355;29;20549;-81
2023/06/04 06:13:54;;;;;;;9.03;8.63;;;17.40;99.90;;;;;;4907824;29;20572;-81
2023/06/04 06:16:24;;;;;;;9.37;8.87;;;17.40;99.90;;;;;;4909253;29;21071;-82
2023/06/04 06:18:52;;;;;;;9.37;8.80;;;17.50;99.90;;;;;;4907813;29;20461;-81
2023/06/04 06:21:21;;;;;;;8.07;7.67;;;17.60;99.90;;;;;;4910992;29;20461;-80
2023/06/04 06:23:49;;;;;;;8.00;7.70;;;17.70;99.90;;;;;;4909778;29;20959;-82
2023/06/04 06:26:17;;;;;;;7.87;7.57;;;17.70;99.90;;;;;;4910851;29;20461;-81
2023/06/04 06:28:48;;;;;;;8.77;8.10;;;17.80;99.90;;;;;;4908867;29;20488;-82
2023/06/04 06:31:16;;;;;;;8.43;7.87;;;17.90;99.90;;;;;;4911169;29;20466;-79
2023/06/04 06:33:46;;;;;;;8.20;7.70;;;18.00;99.90;;;;;;4910344;29;20538;-80
2023/06/04 06:36:18;;;;;;;7.90;7.60;;;18.00;99.90;;;;;;4909022;29;20885;-80
2023/06/04 06:38:46;;;;;;;8.23;7.80;;;18.10;99.90;;;;;;4924538;29;20454;-80
2023/06/04 06:41:15;;;;;;;8.47;8.17;;;18.20;99.90;;;;;;4908970;29;20526;-80
2023/06/04 06:43:43;;;;;;;7.97;7.40;;;18.30;99.90;;;;;;4909184;29;20508;-79
2023/06/04 06:46:11;;;;;;;8.33;7.73;;;18.40;99.90;;;;;;4909591;29;20568;-81
2023/06/04 06:48:39;;;;;;;8.10;7.60;;;18.50;99.90;;;;;;4906856;29;20488;-81
2023/06/04 06:51:08;;;;;;;8.03;7.63;;;18.50;99.90;;;;;;4909484;29;20825;-80
2023/06/04 06:53:36;;;;;;;8.40;8.10;;;18.60;99.90;;;;;;4910580;29;20525;-81
2023/06/04 06:56:04;;;;;;;8.33;7.93;;;18.70;99.90;;;;;;4910622;29;20476;-80
2023/06/04 06:58:32;;;;;;;9.00;8.57;;;18.80;99.90;;;;;;4910157;29;20457;-80
2023/06/04 07:01:01;;;;;;;8.30;7.60;;;18.90;99.90;;;;;;4908454;29;20486;-80
2023/06/04 07:03:29;;;;;;;8.20;7.60;;;18.90;99.90;;;;;;4909531;29;20566;-80
2023/06/04 07:05:57;;;;;;;7.67;7.43;;;19.00;99.90;;;;;;4909701;29;20462;-80
2023/06/04 07:08:28;;;;;;;8.40;8.10;;;19.00;99.90;;;;;;4908902;29;20484;-82
2023/06/04 07:10:56;;;;;;;8.50;8.10;;;19.00;99.90;;;;;;4908530;29;20449;-81
2023/06/04 07:13:24;;;;;;;8.47;7.97;;;19.00;99.90;;;;;;4908864;29;21228;-82
2023/06/04 07:15:52;;;;;;;8.07;7.67;;;19.00;99.90;;;;;;4909364;29;20536;-81
2023/06/04 07:18:20;;;;;;;8.20;7.90;;;19.00;99.90;;;;;;4905547;29;20545;-80
2023/06/04 07:20:49;;;;;;;7.90;7.60;;;19.10;99.90;;;;;;4908686;29;21063;-81
2023/06/04 07:23:17;;;;;;;7.77;7.33;;;19.30;99.90;;;;;;4923542;29;20490;-81
2023/06/04 07:25:47;;;;;;;9.03;8.43;;;19.30;99.90;;;;;;4907697;29;20960;-81
2023/06/04 07:28:15;;;;;;;8.20;7.70;;;19.30;99.90;;;;;;4923491;29;20480;-82
2023/06/04 07:30:45;;;;;;;8.37;7.97;;;19.30;99.90;;;;;;4909286;29;20465;-81
2023/06/04 07:33:16;;;;;;;8.60;7.90;;;19.30;99.90;;;;;;4908889;29;20488;-80
2023/06/04 07:35:44;;;;;;;7.93;7.53;;;19.40;99.90;;;;;;4904694;29;21157;-81
2023/06/04 07:38:12;;;;;;;8.40;8.10;;;19.40;99.90;;;;;;4923324;29;20466;-81
2023/06/04 07:40:40;;;;;;;7.97;7.30;;;19.40;99.90;;;;;;4906822;29;20500;-82
2023/06/04 07:43:09;;;;;;;8.03;7.70;;;19.40;99.90;;;;;;4908272;29;21245;-81
2023/06/04 07:45:37;;;;;;;9.10;8.70;;;19.50;99.90;;;;;;4907286;29;21130;-80
2023/06/04 07:48:06;;;;;;;8.47;8.03;;;19.50;99.90;;;;;;4908070;29;20493;-81
2023/06/04 07:50:34;;;;;;;8.37;7.97;;;19.60;99.90;;;;;;4906623;29;20460;-82
2023/06/04 07:53:06;;;;;;;8.83;8.43;;;19.70;99.90;;;;;;4906192;29;20450;-80
2023/06/04 07:55:34;;;;;;;8.93;8.63;;;19.70;99.90;;;;;;4906868;29;20830;-81
2023/06/04 07:58:02;;;;;;;9.40;8.80;;;19.80;99.90;;;;;;4906933;29;20489;-82
2023/06/04 08:00:35;;;;;;;9.27;8.77;;;19.80;99.90;;;;;;4919181;29;20461;-82
2023/06/04 08:03:03;;;;;;;10.13;9.63;;;19.90;99.90;;;;;;4906868;29;20457;-80
2023/06/04 08:05:31;;;;;;;9.07;8.77;;;20.00;99.90;;;;;;4905558;29;20486;-81
2023/06/04 08:08:00;;;;;;;9.63;9.13;;;20.00;99.90;;;;;;4904857;29;20466;-81
2023/06/04 08:10:28;;;;;;;10.33;9.77;;;20.00;99.90;;;;;;4922680;29;20913;-80
2023/06/04 08:12:56;;;;;;;10.03;9.60;;;20.10;99.90;;;;;;4908179;29;20478;-80
2023/06/04 08:15:24;;;;;;;10.10;9.80;;;20.20;99.90;;;;;;4907682;29;20472;-81
2023/06/04 08:17:54;;;;;;;12.00;11.10;;;20.20;99.90;;;;;;4904275;29;20715;-80
2023/06/04 08:20:22;;;;;;;10.80;10.40;;;20.30;99.90;;;;;;4908026;29;20446;-80
2023/06/04 08:22:54;;;;;;;11.10;10.70;;;20.30;99.90;;;;;;4906658;29;20461;-79
2023/06/04 08:25:22;;;;;;;10.13;9.77;;;20.40;99.90;;;;;;4908258;29;20995;-81
2023/06/04 08:27:50;;;;;;;10.83;10.23;;;20.50;99.90;;;;;;4907405;29;20466;-80
2023/06/04 08:30:19;;;;;;;11.00;10.50;;;20.50;99.90;;;;;;4906341;29;20582;-81
2023/06/04 08:32:47;;;;;;;9.73;9.33;;;20.50;99.90;;;;;;4906978;29;21090;-81
2023/06/04 08:35:16;;;;;;;10.50;10.00;;;20.60;99.90;;;;;;4906257;29;20477;-82
2023/06/04 08:37:44;;;;;;;10.20;9.80;;;20.70;99.90;;;;;;4906805;29;20450;-80
2023/06/04 08:40:13;;;;;;;9.90;9.50;;;20.70;99.90;;;;;;4905731;29;20466;-81
2023/06/04 08:42:44;;;;;;;9.73;9.43;;;20.80;99.90;;;;;;4907903;29;20454;-81
2023/06/04 08:45:16;;;;;;;10.03;9.73;;;20.80;99.90;;;;;;4908050;29;20577;-81
2023/06/04 08:47:48;;;;;;;10.27;9.87;;;20.80;99.90;;;;;;4907241;29;20461;-80
2023/06/04 08:50:20;;;;;;;10.73;10.20;;;20.80;99.90;;;;;;4903931;29;20481;-80
2023/06/04 08:52:49;;;;;;;10.40;9.90;;;20.90;99.90;;;;;;4907707;29;20457;-80
2023/06/04 08:55:17;;;;;;;10.17;9.87;;;20.90;99.90;;;;;;4906366;29;20485;-81
2023/06/04 08:57:46;;;;;;;10.47;9.97;;;21.00;99.90;;;;;;4906081;29;20457;-82
2023/06/04 09:00:16;;;;;;;10.90;10.50;;;21.00;99.90;;;;;;4903163;29;20548;-82
2023/06/04 09:02:46;;;;;;;10.77;10.37;;;21.10;99.90;;;;;;4903827;29;20544;-81
2023/06/04 09:05:22;;;;;;;10.37;9.97;;;21.10;99.90;;;;;;4905902;29;20540;-81
2023/06/04 09:07:53;;;;;;;10.90;10.50;;;21.20;99.90;;;;;;4904145;29;20909;-81
2023/06/04 09:10:24;;;;;;;10.73;10.33;;;21.20;99.90;;;;;;4905581;29;20618;-81
2023/06/04 09:12:53;;;;;;;9.93;9.43;;;21.30;99.90;;;;;;4910931;29;20464;-81
2023/06/04 09:15:21;;;;;;;10.13;9.63;;;21.30;99.90;;;;;;4911520;29;20469;-81
2023/06/04 09:17:49;;;;;;;10.23;9.83;;;21.30;99.90;;;;;;4908400;29;20499;-80
2023/06/04 09:20:23;;;;;;;10.47;9.87;;;21.40;99.90;;;;;;4909490;29;20469;-80
2023/06/04 09:22:51;;;;;;;10.80;10.40;;;21.40;99.90;;;;;;4909950;29;20463;-80
2023/06/04 09:25:25;;;;;;;10.10;9.73;;;21.50;99.90;;;;;;4910127;29;20477;-80
2023/06/04 09:27:55;;;;;;;10.60;10.10;;;21.50;99.90;;;;;;4908919;29;20890;-81
2023/06/04 09:30:23;;;;;;;11.33;10.53;;;21.60;99.90;;;;;;4924032;29;20500;-80
2023/06/04 09:32:53;;;;;;;10.50;10.10;;;21.70;99.90;;;;;;4910294;29;20475;-80
2023/06/04 09:35:23;;;;;;;11.30;10.83;;;21.70;99.90;;;;;;4911139;29;21287;-80
2023/06/04 09:37:55;;;;;;;10.90;10.33;;;21.70;99.90;;;;;;4911215;29;20543;-80
2023/06/04 09:40:24;;;;;;;10.77;10.37;;;21.80;99.90;;;;;;4911157;29;20553;-80
2023/06/04 09:42:55;;;;;;;10.47;10.10;;;21.80;99.90;;;;;;4910762;29;20457;-80
2023/06/04 09:45:30;;;;;;;11.37;10.80;;;21.90;99.90;;;;;;4910544;29;20455;-81
2023/06/04 09:47:59;;;;;;;11.60;10.80;;;21.90;99.90;;;;;;4909949;29;20464;-80
2023/06/04 09:50:32;;;;;;;10.10;9.70;;;22.00;99.90;;;;;;4909958;29;20524;-81
2023/06/04 09:53:00;;;;;;;11.40;10.90;;;22.00;99.90;;;;;;4910377;29;20516;-80
2023/06/04 09:55:29;;;;;;;10.63;10.03;;;22.00;99.90;;;;;;4911568;29;20567;-81
2023/06/04 09:58:00;;;;;;;11.07;10.53;;;22.10;99.90;;;;;;4910223;29;20460;-81
2023/06/04 10:00:29;;;;;;;11.60;10.93;;;22.10;99.90;;;;;;4907471;29;20552;-81
2023/06/04 10:02:59;;;;;;;11.80;11.30;;;22.10;99.90;;;;;;4909785;29;20457;-82
2023/06/04 10:05:32;;;;;;;12.20;11.70;;;22.10;99.90;;;;;;4912896;29;20477;-80
2023/06/04 10:08:03;;;;;;;11.33;10.90;;;22.10;99.90;;;;;;4912606;29;21018;-80
2023/06/04 10:10:37;;;;;;;11.47;10.90;;;22.20;99.90;;;;;;4911336;29;21065;-82
2023/06/04 10:13:10;;;;;;;11.37;10.93;;;22.30;99.90;;;;;;4908514;29;20461;-81
2023/06/04 10:15:39;;;;;;;12.17;11.67;;;22.30;99.90;;;;;;4925936;29;20465;-81
2023/06/04 10:18:07;;;;;;;11.30;10.90;;;22.20;99.90;;;;;;4910367;29;20870;-81
2023/06/04 10:20:37;;;;;;;12.00;11.23;;;22.30;99.90;;;;;;4910182;29;21157;-81
2023/06/04 10:23:07;;;;;;;13.00;12.17;;;22.30;99.90;;;;;;4908716;29;20501;-81
2023/06/04 10:25:36;;;;;;;11.67;11.17;;;22.40;99.90;;;;;;4909799;29;20461;-81
2023/06/04 10:28:05;;;;;;;11.43;11.03;;;22.40;99.90;;;;;;4909746;29;20550;-81
2023/06/04 10:30:33;;;;;;;11.60;11.20;;;22.50;99.90;;;;;;4908310;29;20482;-81
2023/06/04 10:33:02;;;;;;;11.10;10.70;;;22.60;99.90;;;;;;4907960;29;20981;-81
2023/06/04 10:35:32;;;;;;;11.30;11.00;;;22.60;99.90;;;;;;4908650;29;20549;-81
2023/06/04 10:38:09;;;;;;;12.40;11.90;;;22.60;99.90;;;;;;4908005;29;20477;-81
2023/06/04 10:40:38;;;;;;;12.10;11.50;;;22.60;99.90;;;;;;4907397;29;20505;-82
2023/06/04 10:43:07;;;;;;;11.20;10.80;;;22.70;99.90;;;;;;4909089;29;20499;-82
2023/06/04 10:45:36;;;;;;;12.20;11.43;;;22.70;99.90;;;;;;4909519;29;20516;-82
2023/06/04 10:48:05;;;;;;;10.73;10.13;;;22.70;99.90;;;;;;4908316;29;20553;-81
2023/06/04 10:50:35;;;;;;;11.20;10.70;;;22.70;99.90;;;;;;4907815;29;21248;-82
2023/06/04 10:53:03;;;;;;;10.93;10.43;;;22.80;99.90;;;;;;4923173;29;20472;-81
2023/06/04 10:55:34;;;;;;;12.07;11.47;;;22.90;99.90;;;;;;4909086;29;20458;-81
2023/06/04 10:58:03;;;;;;;11.60;11.07;;;22.90;99.90;;;;;;4907478;29;20490;-81
2023/06/04 11:00:38;;;;;;;11.67;11.07;;;22.90;99.90;;;;;;4908380;29;20976;-81
2023/06/04 11:03:07;;;;;;;11.60;10.90;;;23.00;99.90;;;;;;4908329;29;20461;-82
2023/06/04 11:05:38;;;;;;;11.83;11.30;;;23.00;99.90;;;;;;4908350;29;20453;-81
2023/06/04 11:08:07;;;;;;;11.17;10.57;;;23.00;99.90;;;;;;4906510;29;20470;-81
2023/06/04 11:10:38;;;;;;;10.90;10.50;;;23.10;99.90;;;;;;4908187;29;20549;-81
2023/06/04 11:13:07;;;;;;;10.80;10.20;;;23.00;99.90;;;;;;4908073;29;20465;-82
2023/06/04 11:15:42;;;;;;;11.73;11.13;;;23.00;99.90;;;;;;4907175;29;20480;-81
2023/06/04 11:18:18;;;;;;;10.93;10.47;;;22.90;99.90;;;;;;4907561;29;20978;-81
2023/06/04 11:20:47;;;;;;;11.77;10.90;;;22.90;99.90;;;;;;4907045;29;21169;-81
2023/06/04 11:23:16;;;;;;;11.63;10.70;;;23.00;99.90;;;;;;4909296;29;20457;-82
2023/06/04 11:25:46;;;;;;;11.33;10.73;;;23.10;99.90;;;;;;4906160;29;20465;-81
2023/06/04 11:28:18;;;;;;;12.60;11.87;;;23.20;99.90;;;;;;4908167;29;20450;-81
2023/06/04 11:30:57;;;;;;;10.93;10.53;;;23.20;99.90;;;;;;4907274;29;20493;-81
2023/06/04 11:33:25;;;;;;;11.47;10.87;;;23.30;99.90;;;;;;4908302;29;20556;-81
2023/06/04 11:35:54;;;;;;;10.30;9.90;;;23.40;99.90;;;;;;4907879;29;20553;-81
2023/06/04 11:38:22;;;;;;;10.90;10.13;;;23.40;99.90;;;;;;4907223;29;20461;-82
2023/06/04 11:41:00;;;;;;;11.80;10.90;;;23.40;99.90;;;;;;4908565;29;20454;-81
2023/06/04 11:43:29;;;;;;;11.27;10.67;;;23.50;99.90;;;;;;4910442;29;20488;-82
2023/06/04 11:45:57;;;;;;;11.30;10.77;;;23.50;99.90;;;;;;4910262;29;20462;-81
2023/06/04 11:48:25;;;;;;;9.90;9.50;;;23.60;99.90;;;;;;4908879;29;20473;-80
2023/06/04 11:50:54;;;;;;;10.77;10.27;;;23.70;99.90;;;;;;4907721;29;20583;-81
2023/06/04 11:53:23;;;;;;;10.60;10.00;;;23.60;99.90;;;;;;4908771;29;20573;-81
2023/06/04 11:55:51;;;;;;;10.17;9.77;;;23.60;99.90;;;;;;4909679;29;20466;-81
2023/06/04 11:58:21;;;;;;;9.67;9.27;;;23.70;99.90;;;;;;4907729;29;20465;-81
2023/06/04 12:00:49;;;;;;;9.77;9.27;;;23.60;99.90;;;;;;4909428;29;20490;-81
2023/06/04 12:03:17;;;;;;;11.10;10.23;;;23.60;99.90;;;;;;4908825;29;20486;-83
2023/06/04 12:05:45;;;;;;;10.87;10.27;;;23.60;99.90;;;;;;4906917;29;20480;-81
2023/06/04 12:08:13;;;;;;;9.90;9.50;;;23.70;99.90;;;;;;4907563;29;20541;-81
2023/06/04 12:10:43;;;;;;;10.07;9.57;;;23.70;99.90;;;;;;4907558;29;20496;-81
2023/06/04 12:13:12;;;;;;;10.43;10.03;;;23.70;99.90;;;;;;4907994;29;21195;-80
2023/06/04 12:15:41;;;;;;;10.10;9.60;;;23.80;99.90;;;;;;4907417;29;20469;-82
2023/06/04 12:18:10;;;;;;;10.70;10.10;;;23.80;99.90;;;;;;4907403;29;20489;-82
2023/06/04 12:20:39;;;;;;;10.00;9.50;;;23.70;99.90;;;;;;4906541;29;20450;-81
2023/06/04 12:23:08;;;;;;;9.90;9.50;;;23.70;99.90;;;;;;4907800;29;21200;-82
2023/06/04 12:25:37;;;;;;;10.90;10.40;;;23.70;99.90;;;;;;4908807;29;20461;-81
2023/06/04 12:28:06;;;;;;;10.40;10.00;;;23.70;99.90;;;;;;4906244;29;20805;-81
2023/06/04 12:30:37;;;;;;;10.83;10.23;;;23.70;99.90;;;;;;4906925;29;20469;-82
2023/06/04 12:33:07;;;;;;;9.80;9.40;;;23.90;99.90;;;;;;4907226;29;20472;-82
2023/06/04 12:35:35;;;;;;;9.60;9.10;;;23.90;99.90;;;;;;4906917;29;21034;-80
2023/06/04 12:38:05;;;;;;;10.33;9.93;;;23.90;99.90;;;;;;4907058;29;20449;-82
2023/06/04 12:40:33;;;;;;;10.37;9.40;;;23.80;99.90;;;;;;4906709;29;21301;-81
2023/06/04 12:43:01;;;;;;;9.70;9.30;;;23.80;99.90;;;;;;4907640;29;21026;-82
2023/06/04 12:45:30;;;;;;;9.57;9.17;;;23.80;99.90;;;;;;4903911;29;20458;-82